sensor_id;sensor_type;location;lat;lon;timestamp;temperature;humidity
11961;DHT22;6040;49.358;11.140;2023-01-31T00:00:52;2.40;99.90
11961;DHT22;6040;49.358;11.140;2023-01-31T00:03:19;2.40;99.90
11961;DHT22;6040;49.358;11.140;2023-01-31T00:05:46;2.40;99.90
11961;DHT22;6040;49.358;11.140;2023-01-31T00:08:13;4.20;99.90
11961;DHT22;6040;49.358;11.140;2023-01-31T00:10:40;2.40;99.90
11961;DHT22;6040;49.358;11.140;2023-01-31T00:13:06;2.40;99.90
11961;DHT22;6040;49.358;11.140;2023-01-31T00:15:33;3.80;99.90
11961;DHT22;6040;49.358;11.140;2023-01-31T00:18:01;2.40;99.90
11961;DHT22;6040;49.358;11.140;2023-01-31T00:20:28;4.00;99.90
11961;DHT22;6040;49.358;11.140;2023-01-31T00:22:55;2.40;99.90
11961;DHT22;6040;49.358;11.140;2023-01-31T00:25:22;4.60;99.90
11961;DHT22;6040;49.358;11.140;2023-01-31T00:27:49;2.40;99.90
11961;DHT22;6040;49.358;11.140;2023-01-31T00:30:16;2.30;99.90
11961;DHT22;6040;49.358;11.140;2023-01-31T00:32:43;2.30;99.90
11961;DHT22;6040;49.358;11.140;2023-01-31T00:35:11;3.40;99.90
11961;DHT22;6040;49.358;11.140;2023-01-31T00:37:38;2.30;99.90
11961;DHT22;6040;49.358;11.140;2023-01-31T00:40:06;2.80;99.90
11961;DHT22;6040;49.358;11.140;2023-01-31T00:42:33;2.30;99.90
11961;DHT22;6040;49.358;11.140;2023-01-31T00:45:00;2.30;99.90
11961;DHT22;6040;49.358;11.140;2023-01-31T00:47:26;3.70;99.90
11961;DHT22;6040;49.358;11.140;2023-01-31T00:49:53;2.20;99.90
11961;DHT22;6040;49.358;11.140;2023-01-31T00:52:21;2.20;99.90
11961;DHT22;6040;49.358;11.140;2023-01-31T00:54:48;2.20;99.90
11961;DHT22;6040;49.358;11.140;2023-01-31T00:57:15;4.20;99.90
11961;DHT22;6040;49.358;11.140;2023-01-31T00:59:42;3.10;99.90
11961;DHT22;6040;49.358;11.140;2023-01-31T01:02:08;3.80;99.90
11961;DHT22;6040;49.358;11.140;2023-01-31T01:04:35;2.20;99.90
11961;DHT22;6040;49.358;11.140;2023-01-31T01:07:02;2.20;99.90
11961;DHT22;6040;49.358;11.140;2023-01-31T01:09:31;2.20;99.90
11961;DHT22;6040;49.358;11.140;2023-01-31T01:11:57;2.60;99.90
11961;DHT22;6040;49.358;11.140;2023-01-31T01:14:24;2.10;99.90
11961;DHT22;6040;49.358;11.140;2023-01-31T01:16:51;3.50;99.90
11961;DHT22;6040;49.358;11.140;2023-01-31T01:19:18;3.70;99.90
11961;DHT22;6040;49.358;11.140;2023-01-31T01:21:46;2.10;99.90
11961;DHT22;6040;49.358;11.140;2023-01-31T01:24:14;2.10;99.90
11961;DHT22;6040;49.358;11.140;2023-01-31T01:26:42;2.10;99.90
11961;DHT22;6040;49.358;11.140;2023-01-31T01:29:10;2.10;99.90
11961;DHT22;6040;49.358;11.140;2023-01-31T01:31:37;3.70;99.90
11961;DHT22;6040;49.358;11.140;2023-01-31T01:34:07;2.10;99.90
11961;DHT22;6040;49.358;11.140;2023-01-31T01:36:35;2.10;99.90
11961;DHT22;6040;49.358;11.140;2023-01-31T01:39:03;4.00;99.90
11961;DHT22;6040;49.358;11.140;2023-01-31T01:41:31;2.00;99.90
11961;DHT22;6040;49.358;11.140;2023-01-31T01:44:02;2.10;99.90
11961;DHT22;6040;49.358;11.140;2023-01-31T01:46:32;2.00;99.90
11961;DHT22;6040;49.358;11.140;2023-01-31T01:49:02;2.00;99.90
11961;DHT22;6040;49.358;11.140;2023-01-31T01:51:31;4.30;99.90
11961;DHT22;6040;49.358;11.140;2023-01-31T01:54:02;2.00;99.90
11961;DHT22;6040;49.358;11.140;2023-01-31T01:56:33;2.00;99.90
11961;DHT22;6040;49.358;11.140;2023-01-31T01:59:06;2.00;99.90
11961;DHT22;6040;49.358;11.140;2023-01-31T02:01:35;2.10;99.90
11961;DHT22;6040;49.358;11.140;2023-01-31T02:04:05;3.90;99.90
11961;DHT22;6040;49.358;11.140;2023-01-31T02:06:33;2.00;99.90
11961;DHT22;6040;49.358;11.140;2023-01-31T02:09:00;2.00;99.90
11961;DHT22;6040;49.358;11.140;2023-01-31T02:11:30;1.90;99.90
11961;DHT22;6040;49.358;11.140;2023-01-31T02:14:01;3.10;99.90
11961;DHT22;6040;49.358;11.140;2023-01-31T02:16:29;1.90;99.90
11961;DHT22;6040;49.358;11.140;2023-01-31T02:18:56;1.80;99.90
11961;DHT22;6040;49.358;11.140;2023-01-31T02:21:54;1.70;99.90
11961;DHT22;6040;49.358;11.140;2023-01-31T02:24:54;1.80;99.90
11961;DHT22;6040;49.358;11.140;2023-01-31T02:27:47;1.70;99.90
11961;DHT22;6040;49.358;11.140;2023-01-31T02:30:46;1.70;99.90
11961;DHT22;6040;49.358;11.140;2023-01-31T02:33:24;1.70;99.90
11961;DHT22;6040;49.358;11.140;2023-01-31T02:36:04;1.70;99.90
11961;DHT22;6040;49.358;11.140;2023-01-31T02:38:45;1.80;99.90
11961;DHT22;6040;49.358;11.140;2023-01-31T02:41:18;1.80;99.90
11961;DHT22;6040;49.358;11.140;2023-01-31T02:43:51;1.80;99.90
11961;DHT22;6040;49.358;11.140;2023-01-31T02:46:42;1.80;99.90
11961;DHT22;6040;49.358;11.140;2023-01-31T02:49:16;1.80;99.90
11961;DHT22;6040;49.358;11.140;2023-01-31T02:52:07;1.80;99.90
11961;DHT22;6040;49.358;11.140;2023-01-31T02:54:47;1.80;99.90
11961;DHT22;6040;49.358;11.140;2023-01-31T02:57:35;1.80;99.90
11961;DHT22;6040;49.358;11.140;2023-01-31T03:00:03;1.80;99.90
11961;DHT22;6040;49.358;11.140;2023-01-31T03:02:30;1.70;99.90
11961;DHT22;6040;49.358;11.140;2023-01-31T03:04:58;1.70;99.90
11961;DHT22;6040;49.358;11.140;2023-01-31T03:07:27;1.80;99.90
11961;DHT22;6040;49.358;11.140;2023-01-31T03:10:02;1.60;99.90
11961;DHT22;6040;49.358;11.140;2023-01-31T03:12:45;1.60;99.90
11961;DHT22;6040;49.358;11.140;2023-01-31T03:15:25;3.20;99.90
11961;DHT22;6040;49.358;11.140;2023-01-31T03:18:18;1.60;99.90
11961;DHT22;6040;49.358;11.140;2023-01-31T03:20:50;1.50;99.90
11961;DHT22;6040;49.358;11.140;2023-01-31T03:23:21;1.50;99.90
11961;DHT22;6040;49.358;11.140;2023-01-31T03:25:51;1.50;99.90
11961;DHT22;6040;49.358;11.140;2023-01-31T03:28:22;2.00;99.90
11961;DHT22;6040;49.358;11.140;2023-01-31T03:30:55;1.50;99.90
11961;DHT22;6040;49.358;11.140;2023-01-31T03:33:29;1.60;99.90
11961;DHT22;6040;49.358;11.140;2023-01-31T03:36:02;1.60;99.90
11961;DHT22;6040;49.358;11.140;2023-01-31T03:38:34;1.60;99.90
11961;DHT22;6040;49.358;11.140;2023-01-31T03:41:07;1.60;99.90
11961;DHT22;6040;49.358;11.140;2023-01-31T03:43:40;2.90;99.90
11961;DHT22;6040;49.358;11.140;2023-01-31T03:46:10;1.60;99.90
11961;DHT22;6040;49.358;11.140;2023-01-31T03:48:43;1.60;99.90
11961;DHT22;6040;49.358;11.140;2023-01-31T03:51:17;1.60;99.90
11961;DHT22;6040;49.358;11.140;2023-01-31T03:53:47;3.00;99.90
11961;DHT22;6040;49.358;11.140;2023-01-31T03:56:19;1.60;99.90
11961;DHT22;6040;49.358;11.140;2023-01-31T03:58:49;1.60;99.90
11961;DHT22;6040;49.358;11.140;2023-01-31T04:01:19;1.60;99.90
11961;DHT22;6040;49.358;11.140;2023-01-31T04:03:51;3.40;99.90
11961;DHT22;6040;49.358;11.140;2023-01-31T04:06:20;1.60;99.90
11961;DHT22;6040;49.358;11.140;2023-01-31T04:08:47;2.50;99.90
11961;DHT22;6040;49.358;11.140;2023-01-31T04:11:14;1.60;99.90
11961;DHT22;6040;49.358;11.140;2023-01-31T04:13:45;3.30;99.90
11961;DHT22;6040;49.358;11.140;2023-01-31T04:16:11;1.70;99.90
11961;DHT22;6040;49.358;11.140;2023-01-31T04:18:38;1.70;99.90
11961;DHT22;6040;49.358;11.140;2023-01-31T04:21:05;1.70;99.90
11961;DHT22;6040;49.358;11.140;2023-01-31T04:23:33;1.70;99.90
11961;DHT22;6040;49.358;11.140;2023-01-31T04:26:00;2.20;99.90
11961;DHT22;6040;49.358;11.140;2023-01-31T04:28:27;2.80;99.90
11961;DHT22;6040;49.358;11.140;2023-01-31T04:30:55;3.40;99.90
11961;DHT22;6040;49.358;11.140;2023-01-31T04:33:22;1.80;99.90
11961;DHT22;6040;49.358;11.140;2023-01-31T04:35:49;1.80;99.90
11961;DHT22;6040;49.358;11.140;2023-01-31T04:38:16;1.80;99.90
11961;DHT22;6040;49.358;11.140;2023-01-31T04:40:45;1.80;99.90
11961;DHT22;6040;49.358;11.140;2023-01-31T04:43:11;1.80;99.90
11961;DHT22;6040;49.358;11.140;2023-01-31T04:45:38;1.80;99.90
11961;DHT22;6040;49.358;11.140;2023-01-31T04:48:05;3.60;99.90
11961;DHT22;6040;49.358;11.140;2023-01-31T04:50:32;1.80;99.90
11961;DHT22;6040;49.358;11.140;2023-01-31T04:52:59;3.60;99.90
11961;DHT22;6040;49.358;11.140;2023-01-31T04:55:26;2.80;99.90
11961;DHT22;6040;49.358;11.140;2023-01-31T04:57:54;4.00;99.90
11961;DHT22;6040;49.358;11.140;2023-01-31T05:00:21;1.90;99.90
11961;DHT22;6040;49.358;11.140;2023-01-31T05:02:48;3.20;99.90
11961;DHT22;6040;49.358;11.140;2023-01-31T05:05:15;1.80;99.90
11961;DHT22;6040;49.358;11.140;2023-01-31T05:07:43;1.80;99.90
11961;DHT22;6040;49.358;11.140;2023-01-31T05:10:10;1.80;99.90
11961;DHT22;6040;49.358;11.140;2023-01-31T05:12:37;1.80;99.90
11961;DHT22;6040;49.358;11.140;2023-01-31T05:15:06;1.70;99.90
11961;DHT22;6040;49.358;11.140;2023-01-31T05:17:34;1.70;99.90
11961;DHT22;6040;49.358;11.140;2023-01-31T05:20:01;1.60;99.90
11961;DHT22;6040;49.358;11.140;2023-01-31T05:22:28;1.60;99.90
11961;DHT22;6040;49.358;11.140;2023-01-31T05:24:55;1.50;99.90
11961;DHT22;6040;49.358;11.140;2023-01-31T05:27:22;1.50;99.90
11961;DHT22;6040;49.358;11.140;2023-01-31T05:29:48;1.50;99.90
11961;DHT22;6040;49.358;11.140;2023-01-31T05:32:17;1.50;99.90
11961;DHT22;6040;49.358;11.140;2023-01-31T05:34:44;1.40;99.90
11961;DHT22;6040;49.358;11.140;2023-01-31T05:37:11;1.50;99.90
11961;DHT22;6040;49.358;11.140;2023-01-31T05:39:37;1.50;99.90
11961;DHT22;6040;49.358;11.140;2023-01-31T05:42:04;1.50;99.90
11961;DHT22;6040;49.358;11.140;2023-01-31T05:44:31;1.50;99.90
11961;DHT22;6040;49.358;11.140;2023-01-31T05:46:58;1.50;99.90
11961;DHT22;6040;49.358;11.140;2023-01-31T05:49:27;1.50;99.90
11961;DHT22;6040;49.358;11.140;2023-01-31T05:51:57;1.50;99.90
11961;DHT22;6040;49.358;11.140;2023-01-31T05:54:24;1.50;99.90
11961;DHT22;6040;49.358;11.140;2023-01-31T05:56:51;1.50;99.90
11961;DHT22;6040;49.358;11.140;2023-01-31T05:59:18;1.50;99.90
11961;DHT22;6040;49.358;11.140;2023-01-31T06:01:45;1.50;99.90
11961;DHT22;6040;49.358;11.140;2023-01-31T06:04:12;1.50;99.90
11961;DHT22;6040;49.358;11.140;2023-01-31T06:06:40;1.50;99.90
11961;DHT22;6040;49.358;11.140;2023-01-31T06:09:07;1.60;99.90
11961;DHT22;6040;49.358;11.140;2023-01-31T06:11:34;1.70;99.90
11961;DHT22;6040;49.358;11.140;2023-01-31T06:14:00;1.60;99.90
11961;DHT22;6040;49.358;11.140;2023-01-31T06:16:27;1.70;99.90
11961;DHT22;6040;49.358;11.140;2023-01-31T06:18:54;1.70;99.90
11961;DHT22;6040;49.358;11.140;2023-01-31T06:21:22;3.20;99.90
11961;DHT22;6040;49.358;11.140;2023-01-31T06:23:50;1.70;99.90
11961;DHT22;6040;49.358;11.140;2023-01-31T06:26:17;1.70;99.90
11961;DHT22;6040;49.358;11.140;2023-01-31T06:28:43;2.80;99.90
11961;DHT22;6040;49.358;11.140;2023-01-31T06:31:11;1.70;99.90
11961;DHT22;6040;49.358;11.140;2023-01-31T06:33:38;1.70;99.90
11961;DHT22;6040;49.358;11.140;2023-01-31T06:36:06;3.30;99.90
11961;DHT22;6040;49.358;11.140;2023-01-31T06:38:33;1.70;99.90
11961;DHT22;6040;49.358;11.140;2023-01-31T06:41:02;1.70;99.90
11961;DHT22;6040;49.358;11.140;2023-01-31T06:43:28;1.70;99.90
11961;DHT22;6040;49.358;11.140;2023-01-31T06:45:55;1.70;99.90
11961;DHT22;6040;49.358;11.140;2023-01-31T06:48:22;1.70;99.90
11961;DHT22;6040;49.358;11.140;2023-01-31T06:50:49;1.70;99.90
11961;DHT22;6040;49.358;11.140;2023-01-31T06:53:16;4.00;99.90
11961;DHT22;6040;49.358;11.140;2023-01-31T06:55:42;1.70;99.90
11961;DHT22;6040;49.358;11.140;2023-01-31T06:58:11;3.10;99.90
11961;DHT22;6040;49.358;11.140;2023-01-31T07:00:38;3.10;99.90
11961;DHT22;6040;49.358;11.140;2023-01-31T07:03:04;1.80;99.90
11961;DHT22;6040;49.358;11.140;2023-01-31T07:05:31;3.10;99.90
11961;DHT22;6040;49.358;11.140;2023-01-31T07:07:58;1.70;99.90
11961;DHT22;6040;49.358;11.140;2023-01-31T07:10:25;1.80;99.90
11961;DHT22;6040;49.358;11.140;2023-01-31T07:12:52;1.80;99.90
11961;DHT22;6040;49.358;11.140;2023-01-31T07:15:20;1.80;99.90
11961;DHT22;6040;49.358;11.140;2023-01-31T07:17:47;1.80;99.90
11961;DHT22;6040;49.358;11.140;2023-01-31T07:20:14;1.80;99.90
11961;DHT22;6040;49.358;11.140;2023-01-31T07:22:40;1.80;99.90
11961;DHT22;6040;49.358;11.140;2023-01-31T07:25:08;1.80;99.90
11961;DHT22;6040;49.358;11.140;2023-01-31T07:27:35;1.80;99.90
11961;DHT22;6040;49.358;11.140;2023-01-31T07:30:02;1.80;99.90
11961;DHT22;6040;49.358;11.140;2023-01-31T07:32:30;2.60;99.90
11961;DHT22;6040;49.358;11.140;2023-01-31T07:34:57;1.80;99.90
11961;DHT22;6040;49.358;11.140;2023-01-31T07:37:24;1.80;99.90
11961;DHT22;6040;49.358;11.140;2023-01-31T07:39:50;3.60;99.90
11961;DHT22;6040;49.358;11.140;2023-01-31T07:42:17;1.80;99.90
11961;DHT22;6040;49.358;11.140;2023-01-31T07:44:44;1.90;99.90
11961;DHT22;6040;49.358;11.140;2023-01-31T07:47:11;2.00;99.90
11961;DHT22;6040;49.358;11.140;2023-01-31T07:49:39;2.00;99.90
11961;DHT22;6040;49.358;11.140;2023-01-31T07:52:06;2.30;99.90
11961;DHT22;6040;49.358;11.140;2023-01-31T07:54:33;2.60;99.90
11961;DHT22;6040;49.358;11.140;2023-01-31T07:57:00;2.80;99.90
11961;DHT22;6040;49.358;11.140;2023-01-31T07:59:26;3.10;99.90
11961;DHT22;6040;49.358;11.140;2023-01-31T08:01:53;3.50;99.90
11961;DHT22;6040;49.358;11.140;2023-01-31T08:04:39;4.00;99.90
11961;DHT22;6040;49.358;11.140;2023-01-31T08:07:06;4.80;99.90
11961;DHT22;6040;49.358;11.140;2023-01-31T08:09:34;5.90;99.90
11961;DHT22;6040;49.358;11.140;2023-01-31T08:12:03;6.70;99.90
11961;DHT22;6040;49.358;11.140;2023-01-31T08:14:30;6.90;99.90
11961;DHT22;6040;49.358;11.140;2023-01-31T08:16:57;6.30;99.90
11961;DHT22;6040;49.358;11.140;2023-01-31T08:19:24;7.40;99.90
11961;DHT22;6040;49.358;11.140;2023-01-31T08:21:52;5.60;99.90
11961;DHT22;6040;49.358;11.140;2023-01-31T08:24:19;5.10;99.90
11961;DHT22;6040;49.358;11.140;2023-01-31T08:26:46;4.80;99.90
11961;DHT22;6040;49.358;11.140;2023-01-31T08:29:13;3.50;99.90
11961;DHT22;6040;49.358;11.140;2023-01-31T08:31:40;3.10;99.90
11961;DHT22;6040;49.358;11.140;2023-01-31T08:34:07;3.00;99.90
11961;DHT22;6040;49.358;11.140;2023-01-31T08:36:34;3.00;99.90
11961;DHT22;6040;49.358;11.140;2023-01-31T08:39:03;3.00;99.90
11961;DHT22;6040;49.358;11.140;2023-01-31T08:41:31;3.40;99.90
11961;DHT22;6040;49.358;11.140;2023-01-31T08:43:58;4.00;99.90
11961;DHT22;6040;49.358;11.140;2023-01-31T08:46:27;4.20;99.90
11961;DHT22;6040;49.358;11.140;2023-01-31T08:48:55;4.70;99.90
11961;DHT22;6040;49.358;11.140;2023-01-31T08:51:22;5.20;99.90
11961;DHT22;6040;49.358;11.140;2023-01-31T08:53:49;5.50;99.90
11961;DHT22;6040;49.358;11.140;2023-01-31T08:56:17;5.50;99.90
11961;DHT22;6040;49.358;11.140;2023-01-31T08:58:46;5.20;99.90
11961;DHT22;6040;49.358;11.140;2023-01-31T09:01:15;4.80;99.90
11961;DHT22;6040;49.358;11.140;2023-01-31T09:03:42;5.60;99.90
11961;DHT22;6040;49.358;11.140;2023-01-31T09:06:12;5.70;99.90
11961;DHT22;6040;49.358;11.140;2023-01-31T09:08:39;4.10;99.90
11961;DHT22;6040;49.358;11.140;2023-01-31T09:11:06;3.80;99.90
11961;DHT22;6040;49.358;11.140;2023-01-31T09:13:35;3.70;99.90
11961;DHT22;6040;49.358;11.140;2023-01-31T09:16:03;3.60;99.90
11961;DHT22;6040;49.358;11.140;2023-01-31T09:18:32;3.40;99.90
11961;DHT22;6040;49.358;11.140;2023-01-31T09:21:03;3.30;99.90
11961;DHT22;6040;49.358;11.140;2023-01-31T09:23:30;3.10;99.90
11961;DHT22;6040;49.358;11.140;2023-01-31T09:25:57;3.10;99.90
11961;DHT22;6040;49.358;11.140;2023-01-31T09:28:24;3.20;99.90
11961;DHT22;6040;49.358;11.140;2023-01-31T09:30:53;3.10;99.90
11961;DHT22;6040;49.358;11.140;2023-01-31T09:33:21;4.40;99.90
11961;DHT22;6040;49.358;11.140;2023-01-31T09:35:55;3.20;99.90
11961;DHT22;6040;49.358;11.140;2023-01-31T09:38:22;3.20;99.90
11961;DHT22;6040;49.358;11.140;2023-01-31T09:40:50;3.20;99.90
11961;DHT22;6040;49.358;11.140;2023-01-31T09:43:18;3.30;99.90
11961;DHT22;6040;49.358;11.140;2023-01-31T09:45:48;3.30;99.90
11961;DHT22;6040;49.358;11.140;2023-01-31T09:48:20;3.20;99.90
11961;DHT22;6040;49.358;11.140;2023-01-31T09:50:50;3.20;99.90
11961;DHT22;6040;49.358;11.140;2023-01-31T09:53:22;3.20;99.90
11961;DHT22;6040;49.358;11.140;2023-01-31T09:55:58;3.20;99.90
11961;DHT22;6040;49.358;11.140;2023-01-31T09:58:33;3.10;99.90
11961;DHT22;6040;49.358;11.140;2023-01-31T10:01:08;3.20;99.90
11961;DHT22;6040;49.358;11.140;2023-01-31T10:03:56;3.20;99.90
11961;DHT22;6040;49.358;11.140;2023-01-31T10:06:30;4.80;99.90
11961;DHT22;6040;49.358;11.140;2023-01-31T10:09:02;3.40;99.90
11961;DHT22;6040;49.358;11.140;2023-01-31T10:11:34;3.50;99.90
11961;DHT22;6040;49.358;11.140;2023-01-31T10:14:13;4.60;99.90
11961;DHT22;6040;49.358;11.140;2023-01-31T10:16:49;3.70;99.90
11961;DHT22;6040;49.358;11.140;2023-01-31T10:19:23;3.80;99.90
11961;DHT22;6040;49.358;11.140;2023-01-31T10:21:54;3.80;99.90
11961;DHT22;6040;49.358;11.140;2023-01-31T10:24:25;3.70;99.90
11961;DHT22;6040;49.358;11.140;2023-01-31T10:26:56;3.70;99.90
11961;DHT22;6040;49.358;11.140;2023-01-31T10:29:28;3.90;99.90
11961;DHT22;6040;49.358;11.140;2023-01-31T10:32:02;3.70;99.90
11961;DHT22;6040;49.358;11.140;2023-01-31T10:34:34;3.80;99.90
11961;DHT22;6040;49.358;11.140;2023-01-31T10:37:08;4.70;99.90
11961;DHT22;6040;49.358;11.140;2023-01-31T10:39:40;3.90;99.90
11961;DHT22;6040;49.358;11.140;2023-01-31T10:42:14;5.50;99.90
11961;DHT22;6040;49.358;11.140;2023-01-31T10:44:50;4.40;99.90
11961;DHT22;6040;49.358;11.140;2023-01-31T10:47:20;4.40;99.90
11961;DHT22;6040;49.358;11.140;2023-01-31T10:49:49;4.60;99.90
11961;DHT22;6040;49.358;11.140;2023-01-31T10:52:26;6.90;99.90
11961;DHT22;6040;49.358;11.140;2023-01-31T10:55:06;4.70;99.90
11961;DHT22;6040;49.358;11.140;2023-01-31T10:57:36;4.70;99.90
11961;DHT22;6040;49.358;11.140;2023-01-31T11:00:04;4.90;99.90
11961;DHT22;6040;49.358;11.140;2023-01-31T11:02:31;4.80;99.90
11961;DHT22;6040;49.358;11.140;2023-01-31T11:04:59;4.80;99.90
11961;DHT22;6040;49.358;11.140;2023-01-31T11:07:28;5.40;99.90
11961;DHT22;6040;49.358;11.140;2023-01-31T11:09:55;5.50;99.90
11961;DHT22;6040;49.358;11.140;2023-01-31T11:12:40;4.50;99.90
11961;DHT22;6040;49.358;11.140;2023-01-31T11:15:14;4.50;99.90
11961;DHT22;6040;49.358;11.140;2023-01-31T11:17:43;4.50;99.90
11961;DHT22;6040;49.358;11.140;2023-01-31T11:20:21;4.80;99.90
11961;DHT22;6040;49.358;11.140;2023-01-31T11:22:50;4.30;99.90
11961;DHT22;6040;49.358;11.140;2023-01-31T11:25:19;4.30;99.90
11961;DHT22;6040;49.358;11.140;2023-01-31T11:27:47;4.20;99.90
11961;DHT22;6040;49.358;11.140;2023-01-31T11:30:28;4.20;99.90
11961;DHT22;6040;49.358;11.140;2023-01-31T11:32:55;4.20;99.90
11961;DHT22;6040;49.358;11.140;2023-01-31T11:35:26;4.10;99.90
11961;DHT22;6040;49.358;11.140;2023-01-31T11:37:55;4.80;99.90
11961;DHT22;6040;49.358;11.140;2023-01-31T11:40:30;5.00;99.90
11961;DHT22;6040;49.358;11.140;2023-01-31T11:42:58;4.70;99.90
11961;DHT22;6040;49.358;11.140;2023-01-31T11:45:27;5.10;99.90
11961;DHT22;6040;49.358;11.140;2023-01-31T11:47:57;5.40;99.90
11961;DHT22;6040;49.358;11.140;2023-01-31T11:50:31;5.60;99.90
11961;DHT22;6040;49.358;11.140;2023-01-31T11:52:59;6.00;99.90
11961;DHT22;6040;49.358;11.140;2023-01-31T11:55:35;5.70;99.90
11961;DHT22;6040;49.358;11.140;2023-01-31T11:58:09;5.50;99.90
11961;DHT22;6040;49.358;11.140;2023-01-31T12:00:53;5.30;99.90
11961;DHT22;6040;49.358;11.140;2023-01-31T12:03:21;4.90;99.90
11961;DHT22;6040;49.358;11.140;2023-01-31T12:06:01;4.80;99.90
11961;DHT22;6040;49.358;11.140;2023-01-31T12:08:30;4.80;99.90
11961;DHT22;6040;49.358;11.140;2023-01-31T12:10:57;4.80;99.90
11961;DHT22;6040;49.358;11.140;2023-01-31T12:13:25;4.60;99.90
11961;DHT22;6040;49.358;11.140;2023-01-31T12:15:56;4.50;99.90
11961;DHT22;6040;49.358;11.140;2023-01-31T12:18:34;4.40;99.90
11961;DHT22;6040;49.358;11.140;2023-01-31T12:21:08;4.50;99.90
11961;DHT22;6040;49.358;11.140;2023-01-31T12:23:45;4.50;99.90
11961;DHT22;6040;49.358;11.140;2023-01-31T12:26:20;4.60;99.90
11961;DHT22;6040;49.358;11.140;2023-01-31T12:29:00;4.30;99.90
11961;DHT22;6040;49.358;11.140;2023-01-31T12:31:51;4.30;99.90
11961;DHT22;6040;49.358;11.140;2023-01-31T12:34:33;4.40;99.90
11961;DHT22;6040;49.358;11.140;2023-01-31T12:37:19;4.40;99.90
11961;DHT22;6040;49.358;11.140;2023-01-31T12:40:00;4.40;99.90
11961;DHT22;6040;49.358;11.140;2023-01-31T12:42:43;4.50;99.90
11961;DHT22;6040;49.358;11.140;2023-01-31T12:45:25;4.30;99.90
11961;DHT22;6040;49.358;11.140;2023-01-31T12:48:22;4.30;99.90
11961;DHT22;6040;49.358;11.140;2023-01-31T12:51:01;4.30;99.90
11961;DHT22;6040;49.358;11.140;2023-01-31T12:53:41;6.40;99.90
11961;DHT22;6040;49.358;11.140;2023-01-31T12:56:49;4.30;99.90
11961;DHT22;6040;49.358;11.140;2023-01-31T12:59:30;4.30;99.90
11961;DHT22;6040;49.358;11.140;2023-01-31T13:02:15;4.10;99.90
11961;DHT22;6040;49.358;11.140;2023-01-31T13:04:47;4.20;99.90
11961;DHT22;6040;49.358;11.140;2023-01-31T13:07:24;4.10;99.90
11961;DHT22;6040;49.358;11.140;2023-01-31T13:09:56;4.00;99.90
11961;DHT22;6040;49.358;11.140;2023-01-31T13:12:26;3.90;99.90
11961;DHT22;6040;49.358;11.140;2023-01-31T13:14:59;3.90;99.90
11961;DHT22;6040;49.358;11.140;2023-01-31T13:17:29;3.90;99.90
11961;DHT22;6040;49.358;11.140;2023-01-31T13:19:59;5.20;99.90
11961;DHT22;6040;49.358;11.140;2023-01-31T13:22:30;3.90;99.90
11961;DHT22;6040;49.358;11.140;2023-01-31T13:25:10;3.80;99.90
11961;DHT22;6040;49.358;11.140;2023-01-31T13:27:54;3.80;99.90
11961;DHT22;6040;49.358;11.140;2023-01-31T13:30:30;4.20;99.90
11961;DHT22;6040;49.358;11.140;2023-01-31T13:33:00;3.80;99.90
11961;DHT22;6040;49.358;11.140;2023-01-31T13:35:32;3.80;99.90
11961;DHT22;6040;49.358;11.140;2023-01-31T13:38:05;3.70;99.90
11961;DHT22;6040;49.358;11.140;2023-01-31T13:40:39;3.70;99.90
11961;DHT22;6040;49.358;11.140;2023-01-31T13:43:12;3.60;99.90
11961;DHT22;6040;49.358;11.140;2023-01-31T13:45:42;3.60;99.90
11961;DHT22;6040;49.358;11.140;2023-01-31T13:48:21;3.60;99.90
11961;DHT22;6040;49.358;11.140;2023-01-31T13:50:53;3.60;99.90
11961;DHT22;6040;49.358;11.140;2023-01-31T13:53:25;3.70;99.90
11961;DHT22;6040;49.358;11.140;2023-01-31T13:55:55;4.60;99.90
11961;DHT22;6040;49.358;11.140;2023-01-31T13:58:24;3.50;99.90
11961;DHT22;6040;49.358;11.140;2023-01-31T14:00:57;3.50;99.90
11961;DHT22;6040;49.358;11.140;2023-01-31T14:03:25;3.50;99.90
11961;DHT22;6040;49.358;11.140;2023-01-31T14:05:57;5.50;99.90
11961;DHT22;6040;49.358;11.140;2023-01-31T14:08:37;3.50;99.90
11961;DHT22;6040;49.358;11.140;2023-01-31T14:11:32;3.50;99.90
11961;DHT22;6040;49.358;11.140;2023-01-31T14:14:36;3.40;99.90
11961;DHT22;6040;49.358;11.140;2023-01-31T14:17:04;4.60;99.90
11961;DHT22;6040;49.358;11.140;2023-01-31T14:22:34;3.40;99.90
11961;DHT22;6040;49.358;11.140;2023-01-31T14:25:12;3.40;99.90
11961;DHT22;6040;49.358;11.140;2023-01-31T14:27:44;3.40;99.90
11961;DHT22;6040;49.358;11.140;2023-01-31T14:30:35;3.40;99.90
11961;DHT22;6040;49.358;11.140;2023-01-31T14:33:14;3.40;99.90
11961;DHT22;6040;49.358;11.140;2023-01-31T14:36:16;3.50;99.90
11961;DHT22;6040;49.358;11.140;2023-01-31T14:38:59;3.50;99.90
11961;DHT22;6040;49.358;11.140;2023-01-31T14:41:38;3.40;99.90
11961;DHT22;6040;49.358;11.140;2023-01-31T14:44:19;3.40;99.90
11961;DHT22;6040;49.358;11.140;2023-01-31T14:47:16;3.40;99.90
11961;DHT22;6040;49.358;11.140;2023-01-31T14:50:11;3.40;99.90
11961;DHT22;6040;49.358;11.140;2023-01-31T14:53:01;3.40;99.90
11961;DHT22;6040;49.358;11.140;2023-01-31T14:55:47;3.40;99.90
11961;DHT22;6040;49.358;11.140;2023-01-31T14:58:23;3.40;99.90
11961;DHT22;6040;49.358;11.140;2023-01-31T15:00:53;3.40;99.90
11961;DHT22;6040;49.358;11.140;2023-01-31T15:03:22;4.80;99.90
11961;DHT22;6040;49.358;11.140;2023-01-31T15:05:52;3.40;99.90
11961;DHT22;6040;49.358;11.140;2023-01-31T15:08:42;3.40;99.90
11961;DHT22;6040;49.358;11.140;2023-01-31T15:11:36;3.40;99.90
11961;DHT22;6040;49.358;11.140;2023-01-31T15:14:19;3.40;99.90
11961;DHT22;6040;49.358;11.140;2023-01-31T15:16:56;5.70;99.90
11961;DHT22;6040;49.358;11.140;2023-01-31T15:19:25;5.40;99.90
11961;DHT22;6040;49.358;11.140;2023-01-31T15:21:57;3.50;99.90
11961;DHT22;6040;49.358;11.140;2023-01-31T15:24:29;3.50;99.90
11961;DHT22;6040;49.358;11.140;2023-01-31T15:26:58;3.50;99.90
11961;DHT22;6040;49.358;11.140;2023-01-31T15:29:30;3.40;99.90
11961;DHT22;6040;49.358;11.140;2023-01-31T15:32:04;3.50;99.90
11961;DHT22;6040;49.358;11.140;2023-01-31T15:34:45;3.50;99.90
11961;DHT22;6040;49.358;11.140;2023-01-31T15:37:16;3.50;99.90
11961;DHT22;6040;49.358;11.140;2023-01-31T15:39:49;3.50;99.90
11961;DHT22;6040;49.358;11.140;2023-01-31T15:42:21;3.50;99.90
11961;DHT22;6040;49.358;11.140;2023-01-31T15:44:49;3.50;99.90
11961;DHT22;6040;49.358;11.140;2023-01-31T15:47:20;3.50;99.90
11961;DHT22;6040;49.358;11.140;2023-01-31T15:49:47;5.00;99.90
11961;DHT22;6040;49.358;11.140;2023-01-31T15:52:16;3.50;99.90
11961;DHT22;6040;49.358;11.140;2023-01-31T15:54:56;5.80;99.90
11961;DHT22;6040;49.358;11.140;2023-01-31T15:57:26;4.60;99.90
11961;DHT22;6040;49.358;11.140;2023-01-31T15:59:55;3.60;99.90
11961;DHT22;6040;49.358;11.140;2023-01-31T16:02:27;3.60;99.90
11961;DHT22;6040;49.358;11.140;2023-01-31T16:04:54;3.60;99.90
11961;DHT22;6040;49.358;11.140;2023-01-31T16:07:24;3.50;99.90
11961;DHT22;6040;49.358;11.140;2023-01-31T16:09:54;3.50;99.90
11961;DHT22;6040;49.358;11.140;2023-01-31T16:12:22;4.30;99.90
11961;DHT22;6040;49.358;11.140;2023-01-31T16:14:50;3.50;99.90